Time;durP1;ratioP1;P1;durP2;ratioP2;P2;SDS_P1;SDS_P2;PMS_P1;PMS_P2;Temp;Humidity;BMP_temperature;BMP_pressure;BME280_temperature;BME280_humidity;BME280_pressure;Samples;Min_cycle;Max_cycle;Signal;HPM_P1;HPM_P2
2021/12/19 00:00:06;;;;;;;0.20;0.15;;;;;;;;;;4197158;28;20103;-34
2021/12/19 00:10:42;;;;;;;0.10;0.10;;;;;;;;;;4197061;28;19917;-34
2021/12/19 00:12:43;;;;;;;0.40;0.13;;;;;;;;;;4197214;28;20094;-35
2021/12/19 00:14:44;;;;;;;0.22;0.10;;;;;;;;;;4197403;28;20095;-35
2021/12/19 00:16:46;;;;;;;0.40;0.20;;;;;;;;;;4196827;28;20155;-35
2021/12/19 00:18:48;;;;;;;0.20;0.10;;;;;;;;;;4195665;28;20044;-35
2021/12/19 00:20:50;;;;;;;0.20;0.10;;;;;;;;;;4196896;28;20128;-35
2021/12/19 00:22:51;;;;;;;0.20;0.10;;;;;;;;;;4196421;28;20052;-35
2021/12/19 00:24:52;;;;;;;0.20;0.10;;;;;;;;;;4196969;28;20044;-34
2021/12/19 00:26:53;;;;;;;0.20;0.20;;;;;;;;;;4195526;28;20400;-35
2021/12/19 00:28:54;;;;;;;0.10;0.10;;;;;;;;;;4197569;28;20058;-34
2021/12/19 00:30:55;;;;;;;0.05;0.03;;;;;;;;;;4200318;28;20045;-34
2021/12/19 00:32:56;;;;;;;0.10;0.10;;;;;;;;;;4200057;28;20053;-35
2021/12/19 00:34:57;;;;;;;0.10;0.10;;;;;;;;;;4199024;28;20435;-34
2021/12/19 00:36:58;;;;;;;0.10;0.10;;;;;;;;;;4199728;28;20057;-35
2021/12/19 00:38:59;;;;;;;0.43;0.20;;;;;;;;;;4198959;28;20050;-35
2021/12/19 00:41:01;;;;;;;0.10;0.10;;;;;;;;;;4200033;28;20487;-35
2021/12/19 00:43:07;;;;;;;0.20;0.17;;;;;;;;;;4197788;28;20082;-34
2021/12/19 00:45:19;;;;;;;0.03;0.03;;;;;;;;;;4200437;28;20102;-34
2021/12/19 00:47:20;;;;;;;0.13;0.10;;;;;;;;;;4199951;28;20049;-36
2021/12/19 00:49:22;;;;;;;0.10;0.03;;;;;;;;;;4200256;28;20189;-35
2021/12/19 00:51:24;;;;;;;0.03;0.03;;;;;;;;;;4200021;28;20116;-35
2021/12/19 00:53:25;;;;;;;0.10;0.10;;;;;;;;;;4199661;28;20052;-35
2021/12/19 00:55:27;;;;;;;0.10;0.10;;;;;;;;;;4198830;28;20087;-36
2021/12/19 00:57:28;;;;;;;0.10;0.10;;;;;;;;;;4199746;28;20052;-35
2021/12/19 00:59:29;;;;;;;0.10;0.08;;;;;;;;;;4200138;28;20109;-35
2021/12/19 01:01:30;;;;;;;0.20;0.10;;;;;;;;;;4199975;28;20144;-35
2021/12/19 01:03:31;;;;;;;0.10;0.10;;;;;;;;;;4199696;28;20044;-35
2021/12/19 01:05:34;;;;;;;0.10;0.10;;;;;;;;;;4198531;28;20048;-34
2021/12/19 01:07:35;;;;;;;0.22;0.20;;;;;;;;;;4198126;28;20083;-35
2021/12/19 01:09:36;;;;;;;0.10;0.10;;;;;;;;;;4199748;28;20048;-35
2021/12/19 01:11:37;;;;;;;0.10;0.10;;;;;;;;;;4199545;28;20134;-35
2021/12/19 01:13:38;;;;;;;0.08;0.08;;;;;;;;;;4199663;28;20052;-35
2021/12/19 01:15:39;;;;;;;0.10;0.10;;;;;;;;;;4215090;28;20091;-35
2021/12/19 01:17:41;;;;;;;0.10;0.10;;;;;;;;;;4199625;28;20048;-35
2021/12/19 01:19:44;;;;;;;0.20;0.10;;;;;;;;;;4199505;28;20052;-36
2021/12/19 01:21:46;;;;;;;0.10;0.10;;;;;;;;;;4198683;28;20507;-36
2021/12/19 01:23:47;;;;;;;0.10;0.10;;;;;;;;;;4198373;28;20094;-35
2021/12/19 01:25:51;;;;;;;0.10;0.10;;;;;;;;;;4198675;28;20052;-34
2021/12/19 01:27:52;;;;;;;0.85;0.10;;;;;;;;;;4198398;28;20049;-35
2021/12/19 01:29:53;;;;;;;0.20;0.20;;;;;;;;;;4198475;28;20053;-35
2021/12/19 01:31:54;;;;;;;0.10;0.10;;;;;;;;;;4198322;28;20542;-35
2021/12/19 01:33:55;;;;;;;0.10;0.10;;;;;;;;;;4198318;28;20205;-35
2021/12/19 01:35:56;;;;;;;0.15;0.10;;;;;;;;;;4198560;28;20048;-36
2021/12/19 01:37:57;;;;;;;0.13;0.10;;;;;;;;;;4196383;28;20393;-36
2021/12/19 01:39:58;;;;;;;0.10;0.10;;;;;;;;;;4192144;28;20083;-35
2021/12/19 01:41:59;;;;;;;0.20;0.20;;;;;;;;;;4181401;28;20106;-35
2021/12/19 01:44:01;;;;;;;0.45;0.00;;;;;;;;;;4180782;28;20049;-34
2021/12/19 01:46:02;;;;;;;0.10;0.10;;;;;;;;;;4181821;28;20049;-35
2021/12/19 01:48:04;;;;;;;0.10;0.10;;;;;;;;;;4181465;28;20060;-34
2021/12/19 01:50:07;;;;;;;0.10;0.10;;;;;;;;;;4196932;28;20045;-35
2021/12/19 01:52:08;;;;;;;0.00;0.00;;;;;;;;;;4180197;28;20049;-35
2021/12/19 01:54:10;;;;;;;0.15;0.15;;;;;;;;;;4181054;28;20049;-34
2021/12/19 01:56:10;;;;;;;0.30;0.20;;;;;;;;;;4180783;28;20045;-35
2021/12/19 01:58:12;;;;;;;0.10;0.10;;;;;;;;;;4180794;28;20481;-35
2021/12/19 02:00:18;;;;;;;0.10;0.10;;;;;;;;;;4180728;28;20049;-35
2021/12/19 02:02:19;;;;;;;0.10;0.10;;;;;;;;;;4180057;28;20049;-35
2021/12/19 02:04:21;;;;;;;0.10;0.10;;;;;;;;;;4181104;28;20156;-35
2021/12/19 02:06:22;;;;;;;0.20;0.20;;;;;;;;;;4181392;28;20044;-35
2021/12/19 02:08:23;;;;;;;0.35;0.10;;;;;;;;;;4180160;28;20056;-35
2021/12/19 02:10:25;;;;;;;0.10;0.10;;;;;;;;;;4181100;28;20186;-35
2021/12/19 02:12:26;;;;;;;0.35;0.20;;;;;;;;;;4181182;28;20056;-35
2021/12/19 02:14:27;;;;;;;0.20;0.10;;;;;;;;;;4196506;28;20101;-35
2021/12/19 02:16:28;;;;;;;0.00;0.00;;;;;;;;;;4181445;28;20055;-35
2021/12/19 02:18:29;;;;;;;0.30;0.10;;;;;;;;;;4179977;28;20484;-34
2021/12/19 02:20:32;;;;;;;0.10;0.00;;;;;;;;;;4181358;28;20060;-35
2021/12/19 02:22:33;;;;;;;0.17;0.10;;;;;;;;;;4142555;28;1104097;-34
2021/12/19 02:24:34;;;;;;;0.00;0.00;;;;;;;;;;4181967;28;20060;-34
2021/12/19 02:26:36;;;;;;;0.10;0.10;;;;;;;;;;4180878;28;20060;-35
2021/12/19 02:28:37;;;;;;;0.10;0.00;;;;;;;;;;4181864;28;20053;-34
2021/12/19 02:30:38;;;;;;;0.63;0.10;;;;;;;;;;4184164;28;20091;-34
2021/12/19 02:32:41;;;;;;;0.10;0.10;;;;;;;;;;4198164;28;20040;-34
2021/12/19 02:34:44;;;;;;;0.10;0.10;;;;;;;;;;4198518;28;20481;-34
2021/12/19 02:50:07;;;;;;;0.17;0.10;;;;;;;;;;4198104;28;20098;-35
2021/12/19 02:52:12;;;;;;;0.10;0.10;;;;;;;;;;4196534;28;20057;-35
2021/12/19 02:54:13;;;;;;;0.13;0.10;;;;;;;;;;4197487;28;20048;-35
2021/12/19 02:56:14;;;;;;;0.00;0.00;;;;;;;;;;4197919;28;20090;-34
2021/12/19 02:58:17;;;;;;;0.05;0.05;;;;;;;;;;4197838;28;20125;-35
2021/12/19 03:00:21;;;;;;;0.10;0.08;;;;;;;;;;4197985;28;20102;-35
2021/12/19 03:02:22;;;;;;;0.00;0.00;;;;;;;;;;4197369;28;20052;-35
2021/12/19 03:04:23;;;;;;;0.05;0.05;;;;;;;;;;4197227;28;20130;-35
2021/12/19 03:06:24;;;;;;;0.00;0.00;;;;;;;;;;4195572;28;20049;-35
2021/12/19 03:08:26;;;;;;;0.10;0.10;;;;;;;;;;4197130;28;20045;-35
2021/12/19 03:19:35;;;;;;;0.10;0.10;;;;;;;;;;4195975;28;20405;-35
2021/12/19 03:21:36;;;;;;;0.10;0.10;;;;;;;;;;4197023;28;20095;-35
2021/12/19 03:23:37;;;;;;;0.00;0.00;;;;;;;;;;4197247;28;20424;-35
2021/12/19 03:25:39;;;;;;;0.00;0.00;;;;;;;;;;4196279;28;20082;-35
2021/12/19 03:27:40;;;;;;;0.10;0.10;;;;;;;;;;4197379;28;20048;-34
2021/12/19 03:29:41;;;;;;;0.10;0.10;;;;;;;;;;4197523;28;20567;-35
2021/12/19 03:31:43;;;;;;;0.00;0.00;;;;;;;;;;4197376;28;20488;-34
2021/12/19 03:33:44;;;;;;;0.10;0.10;;;;;;;;;;4197606;28;20056;-35
2021/12/19 03:35:45;;;;;;;0.32;0.10;;;;;;;;;;4197362;28;20480;-35
2021/12/19 03:37:47;;;;;;;0.00;0.00;;;;;;;;;;4197172;28;20045;-35
2021/12/19 03:40:08;;;;;;;0.00;0.00;;;;;;;;;;4197326;28;20048;-35
2021/12/19 03:42:09;;;;;;;0.20;0.10;;;;;;;;;;4196205;28;20098;-35
2021/12/19 03:44:10;;;;;;;0.10;0.10;;;;;;;;;;4197394;28;20447;-36
2021/12/19 03:46:12;;;;;;;0.10;0.10;;;;;;;;;;4197599;28;20040;-35
2021/12/19 03:48:15;;;;;;;0.13;0.13;;;;;;;;;;4197383;28;20044;-35
2021/12/19 03:50:20;;;;;;;0.10;0.10;;;;;;;;;;4197446;28;20110;-35
2021/12/19 03:52:20;;;;;;;0.17;0.10;;;;;;;;;;4196370;28;20433;-35
2021/12/19 03:54:22;;;;;;;0.10;0.10;;;;;;;;;;4196702;28;20048;-35
2021/12/19 03:56:22;;;;;;;0.95;0.10;;;;;;;;;;4197269;28;20546;-35
2021/12/19 03:58:23;;;;;;;0.15;0.10;;;;;;;;;;4196310;28;20090;-35
2021/12/19 04:00:26;;;;;;;0.15;0.10;;;;;;;;;;4196636;28;20064;-35
2021/12/19 04:02:28;;;;;;;0.35;0.10;;;;;;;;;;4196386;28;20044;-35
2021/12/19 04:04:35;;;;;;;0.00;0.00;;;;;;;;;;4196216;28;20044;-35
2021/12/19 04:06:36;;;;;;;0.03;0.03;;;;;;;;;;4196497;28;20049;-35
2021/12/19 04:08:37;;;;;;;0.10;0.10;;;;;;;;;;4196594;28;20166;-35
2021/12/19 04:10:38;;;;;;;0.00;0.00;;;;;;;;;;4196629;28;20392;-35
2021/12/19 04:12:39;;;;;;;0.08;0.08;;;;;;;;;;4196893;28;20048;-35
2021/12/19 04:14:41;;;;;;;0.13;0.10;;;;;;;;;;4195450;28;20053;-34
2021/12/19 04:16:43;;;;;;;0.10;0.10;;;;;;;;;;4196042;28;20048;-35
2021/12/19 04:18:44;;;;;;;0.10;0.10;;;;;;;;;;4197322;28;20052;-35
2021/12/19 04:20:45;;;;;;;0.08;0.08;;;;;;;;;;4196599;28;20063;-35
2021/12/19 04:22:48;;;;;;;0.10;0.10;;;;;;;;;;4196251;28;20075;-36
2021/12/19 04:24:49;;;;;;;0.10;0.10;;;;;;;;;;4196967;28;20472;-35
2021/12/19 04:26:50;;;;;;;0.20;0.10;;;;;;;;;;4196846;28;20493;-35
2021/12/19 04:28:51;;;;;;;0.10;0.10;;;;;;;;;;4196945;28;20091;-35
2021/12/19 04:30:52;;;;;;;0.10;0.10;;;;;;;;;;4196908;28;20132;-34
2021/12/19 04:33:06;;;;;;;0.13;0.10;;;;;;;;;;4196705;28;20081;-34
2021/12/19 04:35:09;;;;;;;0.20;0.10;;;;;;;;;;4196911;28;20052;-35
2021/12/19 04:37:43;;;;;;;0.10;0.10;;;;;;;;;;4196275;28;20048;-35
2021/12/19 04:59:24;;;;;;;0.10;0.10;;;;;;;;;;4196259;28;20056;-36
2021/12/19 05:06:48;;;;;;;0.10;0.10;;;;;;;;;;4196357;28;20048;-36
2021/12/19 05:15:59;;;;;;;0.05;0.00;;;;;;;;;;4172117;28;20106;-35
2021/12/19 05:18:05;;;;;;;0.00;0.00;;;;;;;;;;4198469;28;20510;-35
2021/12/19 05:20:15;;;;;;;0.00;0.00;;;;;;;;;;4199078;28;20477;-36
2021/12/19 05:22:18;;;;;;;;;;;;;;;;;;4198777;28;20381;-35
2021/12/19 05:24:45;;;;;;;0.20;0.10;;;;;;;;;;4199536;28;19916;-35
2021/12/19 05:26:44;;;;;;;0.10;0.00;;;;;;;;;;4199377;28;20048;-35
2021/12/19 05:28:48;;;;;;;0.10;0.10;;;;;;;;;;4199422;28;20186;-36
2021/12/19 05:30:49;;;;;;;0.00;0.00;;;;;;;;;;4199389;28;20053;-35
2021/12/19 05:32:51;;;;;;;0.00;0.00;;;;;;;;;;4197835;28;20440;-36
2021/12/19 05:34:52;;;;;;;0.13;0.10;;;;;;;;;;4199346;28;20098;-35
2021/12/19 05:46:02;;;;;;;0.10;0.10;;;;;;;;;;4199138;28;19916;-35
2021/12/19 05:48:03;;;;;;;0.15;0.10;;;;;;;;;;4199230;28;20421;-35
2021/12/19 05:50:05;;;;;;;0.03;0.03;;;;;;;;;;4199430;28;20052;-35
2021/12/19 05:52:06;;;;;;;0.10;0.10;;;;;;;;;;4198585;28;20052;-35
2021/12/19 05:54:09;;;;;;;0.20;0.00;;;;;;;;;;4198673;28;20087;-35
2021/12/19 05:56:10;;;;;;;0.00;0.00;;;;;;;;;;4197708;28;20163;-35
2021/12/19 05:58:11;;;;;;;0.03;0.03;;;;;;;;;;4197244;28;20166;-35
2021/12/19 06:00:14;;;;;;;0.05;0.00;;;;;;;;;;4199067;28;20055;-35
2021/12/19 06:02:15;;;;;;;0.10;0.10;;;;;;;;;;4198131;28;20059;-35
2021/12/19 06:04:16;;;;;;;0.00;0.00;;;;;;;;;;4198065;28;20049;-34
2021/12/19 06:06:17;;;;;;;0.08;0.08;;;;;;;;;;4198062;28;20070;-35
2021/12/19 06:08:18;;;;;;;0.10;0.10;;;;;;;;;;4197866;28;20044;-35
2021/12/19 06:10:20;;;;;;;0.60;0.10;;;;;;;;;;4198361;28;20052;-35
2021/12/19 06:12:21;;;;;;;0.00;0.00;;;;;;;;;;4198254;28;20053;-34
2021/12/19 06:14:23;;;;;;;0.10;0.10;;;;;;;;;;4198164;28;20056;-35
2021/12/19 06:16:23;;;;;;;0.13;0.10;;;;;;;;;;4198604;28;20447;-34
2021/12/19 06:18:24;;;;;;;0.20;0.10;;;;;;;;;;4199024;28;20064;-35
2021/12/19 06:20:25;;;;;;;0.00;0.00;;;;;;;;;;4198903;28;20182;-34
2021/12/19 06:22:26;;;;;;;0.15;0.10;;;;;;;;;;4197778;28;20086;-34
2021/12/19 06:24:27;;;;;;;0.20;0.10;;;;;;;;;;4198557;28;20090;-35
2021/12/19 06:26:28;;;;;;;0.28;0.00;;;;;;;;;;4197290;28;20056;-35
2021/12/19 06:28:30;;;;;;;0.10;0.10;;;;;;;;;;4198061;28;20445;-36
2021/12/19 06:30:31;;;;;;;0.10;0.10;;;;;;;;;;4198342;28;20052;-35
2021/12/19 06:32:32;;;;;;;0.10;0.10;;;;;;;;;;4198129;28;20044;-35
2021/12/19 06:34:33;;;;;;;0.00;0.00;;;;;;;;;;4198173;28;20098;-35
2021/12/19 06:36:36;;;;;;;0.03;0.00;;;;;;;;;;4197058;28;20064;-35
2021/12/19 06:38:37;;;;;;;0.32;0.10;;;;;;;;;;4198212;28;20052;-36
2021/12/19 06:40:38;;;;;;;0.10;0.10;;;;;;;;;;4198359;28;20095;-34
2021/12/19 06:42:39;;;;;;;0.00;0.00;;;;;;;;;;4197987;28;20511;-35
2021/12/19 06:44:40;;;;;;;0.15;0.13;;;;;;;;;;4198410;28;20109;-35
2021/12/19 06:46:41;;;;;;;0.00;0.00;;;;;;;;;;4198012;28;20044;-36
2021/12/19 06:48:43;;;;;;;0.38;0.00;;;;;;;;;;4198288;28;20049;-35
2021/12/19 06:50:44;;;;;;;0.43;0.10;;;;;;;;;;4198013;28;20048;-35
2021/12/19 06:52:46;;;;;;;0.00;0.00;;;;;;;;;;4197258;28;20630;-35
2021/12/19 06:54:47;;;;;;;0.25;0.10;;;;;;;;;;4198007;28;20048;-35
2021/12/19 06:56:48;;;;;;;0.13;0.10;;;;;;;;;;4197307;28;20530;-34
2021/12/19 06:58:49;;;;;;;0.20;0.08;;;;;;;;;;4196207;28;20052;-35
2021/12/19 07:00:50;;;;;;;0.00;0.00;;;;;;;;;;4196305;28;20095;-35
2021/12/19 07:02:55;;;;;;;0.38;0.10;;;;;;;;;;4196956;28;20101;-35
2021/12/19 07:04:55;;;;;;;1.00;0.10;;;;;;;;;;4197706;28;20090;-35
2021/12/19 07:06:57;;;;;;;0.13;0.10;;;;;;;;;;4196765;28;20064;-35
2021/12/19 07:08:57;;;;;;;0.03;0.03;;;;;;;;;;4197437;28;20097;-35
2021/12/19 07:10:58;;;;;;;0.03;0.03;;;;;;;;;;4197457;28;20054;-36
2021/12/19 07:12:59;;;;;;;0.63;0.10;;;;;;;;;;4197162;28;20055;-34
2021/12/19 07:15:00;;;;;;;0.00;0.00;;;;;;;;;;4197554;28;20056;-35
2021/12/19 07:17:02;;;;;;;0.35;0.10;;;;;;;;;;4197196;28;20052;-36
2021/12/19 07:19:03;;;;;;;0.10;0.10;;;;;;;;;;4197117;28;20048;-35
2021/12/19 07:21:05;;;;;;;0.00;0.00;;;;;;;;;;4197095;28;20381;-35
2021/12/19 07:23:06;;;;;;;0.43;0.10;;;;;;;;;;4195089;28;20052;-35
2021/12/19 07:25:07;;;;;;;0.00;0.00;;;;;;;;;;4195999;28;20105;-35
2021/12/19 07:27:08;;;;;;;0.10;0.10;;;;;;;;;;4197474;28;20045;-35
2021/12/19 07:29:09;;;;;;;0.20;0.10;;;;;;;;;;4197690;28;20510;-35
2021/12/19 07:31:10;;;;;;;0.17;0.10;;;;;;;;;;4197815;28;20071;-35
2021/12/19 07:33:12;;;;;;;0.10;0.00;;;;;;;;;;4197660;28;20105;-35
2021/12/19 07:35:14;;;;;;;0.10;0.10;;;;;;;;;;4197474;28;20373;-35
2021/12/19 07:37:15;;;;;;;0.00;0.00;;;;;;;;;;4196757;28;20083;-36
2021/12/19 07:41:26;;;;;;;0.50;0.20;;;;;;;;;;4197337;28;20048;-35
2021/12/19 07:43:27;;;;;;;0.10;0.10;;;;;;;;;;4197235;28;20091;-35
2021/12/19 07:45:28;;;;;;;0.20;0.20;;;;;;;;;;4197070;28;20056;-35
2021/12/19 07:47:28;;;;;;;0.10;0.10;;;;;;;;;;4196587;28;20417;-35
2021/12/19 07:49:29;;;;;;;0.10;0.10;;;;;;;;;;4197446;28;20087;-35
2021/12/19 07:51:30;;;;;;;0.20;0.10;;;;;;;;;;4197383;28;20095;-35
2021/12/19 07:53:31;;;;;;;0.08;0.08;;;;;;;;;;4196701;28;20499;-35
2021/12/19 07:55:33;;;;;;;0.63;0.05;;;;;;;;;;4197380;28;20052;-35
2021/12/19 07:57:34;;;;;;;0.10;0.10;;;;;;;;;;4196604;28;20449;-35
2021/12/19 07:59:35;;;;;;;0.03;0.00;;;;;;;;;;4195294;28;20056;-35
2021/12/19 08:01:36;;;;;;;0.13;0.10;;;;;;;;;;4196476;28;20105;-34
2021/12/19 08:03:37;;;;;;;0.10;0.10;;;;;;;;;;4197038;28;20060;-35
2021/12/19 08:05:38;;;;;;;0.00;0.00;;;;;;;;;;4196743;28;20049;-35
2021/12/19 08:07:40;;;;;;;2.28;0.40;;;;;;;;;;4196297;28;20048;-35
2021/12/19 08:09:58;;;;;;;0.00;0.00;;;;;;;;;;4197039;28;20052;-35
2021/12/19 08:11:59;;;;;;;1.20;0.10;;;;;;;;;;4195786;28;20056;-35
2021/12/19 08:14:00;;;;;;;0.40;0.10;;;;;;;;;;4194578;28;20470;-35
2021/12/19 08:16:01;;;;;;;0.10;0.10;;;;;;;;;;4196381;28;20052;-35
2021/12/19 08:18:02;;;;;;;0.00;0.00;;;;;;;;;;4196061;28;20098;-35
2021/12/19 08:20:04;;;;;;;0.10;0.08;;;;;;;;;;4196707;28;20377;-35
2021/12/19 08:22:05;;;;;;;0.00;0.00;;;;;;;;;;4195701;28;20129;-35
2021/12/19 08:24:10;;;;;;;0.10;0.03;;;;;;;;;;4196688;28;20049;-35
2021/12/19 08:26:11;;;;;;;0.20;0.20;;;;;;;;;;4196295;28;20106;-35
2021/12/19 08:28:12;;;;;;;0.95;0.08;;;;;;;;;;4196714;28;20377;-35
2021/12/19 08:30:14;;;;;;;0.08;0.00;;;;;;;;;;4196803;28;20090;-35
2021/12/19 08:32:15;;;;;;;0.00;0.00;;;;;;;;;;4196601;28;20060;-35
2021/12/19 08:34:16;;;;;;;1.40;0.10;;;;;;;;;;4196519;28;20056;-35
2021/12/19 08:36:16;;;;;;;0.00;0.00;;;;;;;;;;4196774;28;20053;-35
2021/12/19 08:38:17;;;;;;;0.00;0.00;;;;;;;;;;4196187;28;20140;-36
2021/12/19 08:40:18;;;;;;;0.20;0.13;;;;;;;;;;4196889;28;20095;-35
2021/12/19 08:42:19;;;;;;;0.20;0.10;;;;;;;;;;4196623;28;20457;-35
2021/12/19 08:44:21;;;;;;;0.28;0.08;;;;;;;;;;4195580;28;20045;-35
2021/12/19 08:46:22;;;;;;;0.40;0.00;;;;;;;;;;4196721;28;20110;-35
2021/12/19 08:48:23;;;;;;;0.10;0.00;;;;;;;;;;4196948;28;20049;-35
2021/12/19 08:50:24;;;;;;;0.10;0.10;;;;;;;;;;4198507;28;20135;-35
2021/12/19 08:52:25;;;;;;;0.00;0.00;;;;;;;;;;4199694;28;20510;-34
2021/12/19 08:54:26;;;;;;;0.10;0.10;;;;;;;;;;4200081;28;20060;-35
2021/12/19 08:56:27;;;;;;;1.15;0.17;;;;;;;;;;4199599;28;20377;-36
2021/12/19 08:58:29;;;;;;;0.00;0.00;;;;;;;;;;4198633;28;20056;-35
2021/12/19 09:00:30;;;;;;;0.00;0.00;;;;;;;;;;4200002;28;20059;-35
2021/12/19 09:02:33;;;;;;;0.20;0.10;;;;;;;;;;4198591;28;20052;-35
2021/12/19 09:04:34;;;;;;;0.05;0.00;;;;;;;;;;4198566;28;20512;-35
2021/12/19 09:06:35;;;;;;;0.17;0.17;;;;;;;;;;4199809;28;20094;-35
2021/12/19 09:08:36;;;;;;;0.13;0.03;;;;;;;;;;4199348;28;20499;-35
2021/12/19 09:10:37;;;;;;;0.10;0.05;;;;;;;;;;4199985;28;20041;-34
2021/12/19 09:12:38;;;;;;;0.32;0.10;;;;;;;;;;4199553;28;20052;-35
2021/12/19 09:14:39;;;;;;;0.00;0.00;;;;;;;;;;4199804;28;20099;-35
2021/12/19 09:16:40;;;;;;;0.10;0.10;;;;;;;;;;4199664;28;20048;-35
2021/12/19 09:18:42;;;;;;;0.10;0.10;;;;;;;;;;4199820;28;20117;-35
2021/12/19 09:20:43;;;;;;;0.47;0.10;;;;;;;;;;4199622;28;20399;-35
2021/12/19 09:22:44;;;;;;;0.10;0.10;;;;;;;;;;4198676;28;20159;-35
2021/12/19 09:24:45;;;;;;;0.30;0.10;;;;;;;;;;4199819;28;20056;-35
2021/12/19 09:26:46;;;;;;;0.17;0.00;;;;;;;;;;4199614;28;20052;-35
2021/12/19 09:28:47;;;;;;;0.10;0.10;;;;;;;;;;4199737;28;20044;-35
2021/12/19 09:30:48;;;;;;;0.03;0.03;;;;;;;;;;4198371;28;20090;-35
2021/12/19 09:32:50;;;;;;;0.00;0.00;;;;;;;;;;4199260;28;20052;-34
2021/12/19 09:34:50;;;;;;;0.43;0.10;;;;;;;;;;4199618;28;20049;-35
2021/12/19 09:36:51;;;;;;;0.25;0.08;;;;;;;;;;4198741;28;20102;-34
2021/12/19 09:38:52;;;;;;;0.22;0.10;;;;;;;;;;4199268;28;20225;-35
2021/12/19 09:41:01;;;;;;;0.20;0.00;;;;;;;;;;4199311;28;20095;-35
2021/12/19 09:43:04;;;;;;;0.10;0.10;;;;;;;;;;4199108;28;20083;-35
2021/12/19 09:45:05;;;;;;;0.20;0.10;;;;;;;;;;4197949;28;20060;-34
2021/12/19 09:47:07;;;;;;;0.20;0.10;;;;;;;;;;4198835;28;20476;-34
2021/12/19 09:49:10;;;;;;;0.00;0.00;;;;;;;;;;4199527;28;20056;-34
2021/12/19 09:51:12;;;;;;;0.20;0.10;;;;;;;;;;4198949;28;20056;-34
2021/12/19 09:53:13;;;;;;;0.17;0.00;;;;;;;;;;4198496;28;20488;-34
2021/12/19 09:55:17;;;;;;;0.25;0.00;;;;;;;;;;4198937;28;20099;-34
2021/12/19 09:57:18;;;;;;;0.00;0.00;;;;;;;;;;4199191;28;20071;-34
2021/12/19 09:59:20;;;;;;;0.10;0.10;;;;;;;;;;4199286;28;20143;-34
2021/12/19 10:01:21;;;;;;;0.13;0.10;;;;;;;;;;4198631;28;20476;-35
2021/12/19 10:03:21;;;;;;;1.73;0.10;;;;;;;;;;4199077;28;20099;-36
2021/12/19 10:05:24;;;;;;;0.10;0.10;;;;;;;;;;4199164;28;20182;-35
2021/12/19 10:07:29;;;;;;;0.10;0.00;;;;;;;;;;4198416;28;20102;-35
2021/12/19 10:09:30;;;;;;;0.00;0.00;;;;;;;;;;4198991;28;20060;-35
2021/12/19 10:11:46;;;;;;;0.20;0.10;;;;;;;;;;4199051;28;20063;-35
2021/12/19 10:13:47;;;;;;;0.45;0.10;;;;;;;;;;4198783;28;20442;-35
2021/12/19 10:15:48;;;;;;;0.00;0.00;;;;;;;;;;4197570;28;20189;-35
2021/12/19 10:17:58;;;;;;;0.45;0.00;;;;;;;;;;4196655;28;20052;-35
2021/12/19 10:20:02;;;;;;;0.10;0.10;;;;;;;;;;4198315;28;20048;-35
2021/12/19 10:22:03;;;;;;;0.10;0.10;;;;;;;;;;4197351;28;20047;-35
2021/12/19 10:24:06;;;;;;;0.30;0.20;;;;;;;;;;4198436;28;20044;-35
2021/12/19 10:26:08;;;;;;;0.05;0.05;;;;;;;;;;4198020;28;20059;-35
2021/12/19 10:28:10;;;;;;;0.00;0.00;;;;;;;;;;4198489;28;20056;-35
2021/12/19 10:30:15;;;;;;;0.28;0.10;;;;;;;;;;4198531;28;20064;-35
2021/12/19 10:32:16;;;;;;;0.70;0.10;;;;;;;;;;4198108;28;20056;-35
2021/12/19 10:34:19;;;;;;;0.00;0.00;;;;;;;;;;4197825;28;20060;-35
2021/12/19 10:36:20;;;;;;;0.75;0.00;;;;;;;;;;4196350;28;20448;-35
2021/12/19 10:38:25;;;;;;;0.00;0.00;;;;;;;;;;4197398;28;20049;-34
2021/12/19 10:40:27;;;;;;;0.05;0.00;;;;;;;;;;4197839;28;20056;-35
2021/12/19 10:42:34;;;;;;;0.55;0.10;;;;;;;;;;4197561;28;20041;-35
2021/12/19 10:46:55;;;;;;;0.10;0.10;;;;;;;;;;4197190;28;20391;-35
2021/12/19 10:48:56;;;;;;;0.08;0.08;;;;;;;;;;4198038;28;20106;-35
2021/12/19 10:51:08;;;;;;;0.00;0.00;;;;;;;;;;4198340;28;20094;-35
2021/12/19 10:53:09;;;;;;;0.20;0.00;;;;;;;;;;4197560;28;20048;-35
2021/12/19 10:55:12;;;;;;;0.03;0.03;;;;;;;;;;4198073;28;20488;-34
2021/12/19 10:57:13;;;;;;;0.00;0.00;;;;;;;;;;4197901;28;20064;-35
2021/12/19 10:59:17;;;;;;;0.20;0.10;;;;;;;;;;4198356;28;20056;-35
2021/12/19 11:01:22;;;;;;;0.15;0.08;;;;;;;;;;4197867;28;20063;-36
2021/12/19 11:03:39;;;;;;;0.00;0.00;;;;;;;;;;4198083;28;20060;-35
2021/12/19 11:05:41;;;;;;;0.05;0.00;;;;;;;;;;4197936;28;20377;-35
2021/12/19 11:07:58;;;;;;;0.15;0.05;;;;;;;;;;4197470;28;20056;-35
2021/12/19 11:09:59;;;;;;;0.00;0.00;;;;;;;;;;4197794;28;20049;-35
2021/12/19 11:12:00;;;;;;;0.28;0.10;;;;;;;;;;4197593;28;20098;-35
2021/12/19 11:14:03;;;;;;;0.30;0.10;;;;;;;;;;4197657;28;20094;-35
2021/12/19 11:16:04;;;;;;;0.00;0.00;;;;;;;;;;4198011;28;20052;-35
2021/12/19 11:18:05;;;;;;;1.55;0.13;;;;;;;;;;4196954;28;20060;-35
2021/12/19 11:20:07;;;;;;;0.00;0.00;;;;;;;;;;4197188;28;20057;-35
2021/12/19 11:22:08;;;;;;;0.00;0.00;;;;;;;;;;4196294;28;20059;-35
2021/12/19 11:24:13;;;;;;;0.50;0.10;;;;;;;;;;4195842;28;20404;-35
2021/12/19 11:26:16;;;;;;;0.10;0.10;;;;;;;;;;4197158;28;20472;-35
2021/12/19 11:28:17;;;;;;;0.47;0.10;;;;;;;;;;4197177;28;20045;-34
2021/12/19 11:30:18;;;;;;;0.05;0.05;;;;;;;;;;4197203;28;20526;-35
2021/12/19 11:32:24;;;;;;;1.75;0.10;;;;;;;;;;4196773;28;20428;-35
2021/12/19 11:34:28;;;;;;;0.20;0.00;;;;;;;;;;4197212;28;20072;-35
2021/12/19 11:36:35;;;;;;;0.10;0.10;;;;;;;;;;4196509;28;20052;-35
2021/12/19 11:38:37;;;;;;;0.10;0.10;;;;;;;;;;4196162;28;20048;-35
2021/12/19 11:40:38;;;;;;;0.10;0.10;;;;;;;;;;4195912;28;20060;-34
2021/12/19 11:42:40;;;;;;;0.15;0.05;;;;;;;;;;4196365;28;20037;-35
2021/12/19 11:45:25;;;;;;;0.10;0.10;;;;;;;;;;4196668;28;20433;-35
2021/12/19 11:47:13;;;;;;;0.00;0.00;;;;;;;;;;4196393;28;20424;-35
2021/12/19 11:49:20;;;;;;;0.30;0.10;;;;;;;;;;4197487;28;20090;-35
2021/12/19 11:51:21;;;;;;;0.00;0.00;;;;;;;;;;4196901;28;20044;-35
2021/12/19 11:53:32;;;;;;;0.22;0.10;;;;;;;;;;4195810;28;20048;-34
2021/12/19 11:55:33;;;;;;;0.15;0.00;;;;;;;;;;4197261;28;20048;-35
2021/12/19 11:57:34;;;;;;;0.13;0.00;;;;;;;;;;4197215;28;20142;-35
2021/12/19 11:59:36;;;;;;;0.00;0.00;;;;;;;;;;4197300;28;20475;-35
2021/12/19 12:01:40;;;;;;;0.52;0.00;;;;;;;;;;4196888;28;20049;-34
2021/12/19 12:03:43;;;;;;;0.00;0.00;;;;;;;;;;4197183;28;20503;-35
2021/12/19 12:05:44;;;;;;;0.00;0.00;;;;;;;;;;4197478;28;20476;-35
2021/12/19 12:08:03;;;;;;;0.17;0.03;;;;;;;;;;4196699;28;20060;-35
2021/12/19 12:10:04;;;;;;;;;;;;;;;;;;4197715;28;20114;-35
2021/12/19 12:12:14;;;;;;;0.10;0.10;;;;;;;;;;4195666;28;20355;-35
2021/12/19 12:14:20;;;;;;;0.15;0.10;;;;;;;;;;4197195;28;20048;-34
2021/12/19 12:16:32;;;;;;;0.15;0.10;;;;;;;;;;4197240;28;20092;-35
2021/12/19 12:18:34;;;;;;;0.20;0.00;;;;;;;;;;4196969;28;20052;-35
2021/12/19 12:20:37;;;;;;;3.63;0.10;;;;;;;;;;4197038;28;20476;-34
2021/12/19 12:22:43;;;;;;;0.30;0.10;;;;;;;;;;4196320;28;20049;-35
2021/12/19 12:25:03;;;;;;;0.45;0.00;;;;;;;;;;4197924;28;20409;-35
2021/12/19 12:27:05;;;;;;;0.00;0.00;;;;;;;;;;4200442;28;20059;-35
2021/12/19 12:29:06;;;;;;;0.00;0.00;;;;;;;;;;4200408;28;20052;-35
2021/12/19 12:31:07;;;;;;;0.00;0.00;;;;;;;;;;4200332;28;20056;-35
2021/12/19 12:33:10;;;;;;;0.03;0.03;;;;;;;;;;4200287;28;20095;-35
2021/12/19 12:35:12;;;;;;;0.65;0.03;;;;;;;;;;4200632;28;20052;-35
2021/12/19 12:37:14;;;;;;;0.00;0.00;;;;;;;;;;4200194;28;20056;-35
2021/12/19 12:39:19;;;;;;;0.22;0.00;;;;;;;;;;4200302;28;20049;-37
2021/12/19 12:41:28;;;;;;;0.20;0.10;;;;;;;;;;4200251;28;20098;-35
2021/12/19 12:43:30;;;;;;;0.43;0.10;;;;;;;;;;4200304;28;20053;-35
2021/12/19 12:45:46;;;;;;;0.17;0.10;;;;;;;;;;4200345;28;20044;-35
2021/12/19 12:47:48;;;;;;;1.00;0.22;;;;;;;;;;4198747;28;20480;-35
2021/12/19 12:49:49;;;;;;;0.03;0.00;;;;;;;;;;4198764;28;20052;-35
2021/12/19 12:51:56;;;;;;;0.30;0.00;;;;;;;;;;4199484;28;20110;-35
2021/12/19 12:54:03;;;;;;;0.22;0.00;;;;;;;;;;4200142;28;20052;-35
2021/12/19 12:56:09;;;;;;;0.80;0.10;;;;;;;;;;4200018;28;20488;-34
2021/12/19 12:58:16;;;;;;;0.65;0.10;;;;;;;;;;4199901;28;20052;-34
2021/12/19 13:00:21;;;;;;;0.52;0.03;;;;;;;;;;4199978;28;20197;-35
2021/12/19 13:02:31;;;;;;;0.10;0.05;;;;;;;;;;4199953;28;20049;-35
2021/12/19 13:04:32;;;;;;;0.30;0.00;;;;;;;;;;4200188;28;20059;-35
2021/12/19 13:06:36;;;;;;;0.30;0.10;;;;;;;;;;4199899;28;20048;-35
2021/12/19 13:08:37;;;;;;;0.10;0.05;;;;;;;;;;4199475;28;20389;-35
2021/12/19 13:10:38;;;;;;;0.00;0.00;;;;;;;;;;4200167;28;20052;-35
2021/12/19 13:12:41;;;;;;;0.00;0.00;;;;;;;;;;4198502;28;20097;-36
2021/12/19 13:14:44;;;;;;;0.30;0.10;;;;;;;;;;4199665;28;20110;-34
2021/12/19 13:16:47;;;;;;;0.00;0.00;;;;;;;;;;4199859;28;20060;-34
2021/12/19 13:18:48;;;;;;;0.10;0.10;;;;;;;;;;4199933;28;20060;-34
2021/12/19 13:20:49;;;;;;;1.73;0.10;;;;;;;;;;4199882;28;20135;-35
2021/12/19 13:22:51;;;;;;;0.20;0.10;;;;;;;;;;4198848;28;20064;-34
2021/12/19 13:24:53;;;;;;;0.05;0.05;;;;;;;;;;4199912;28;20090;-35
2021/12/19 13:27:08;;;;;;;0.20;0.10;;;;;;;;;;4199375;28;20102;-35
2021/12/19 13:29:19;;;;;;;0.00;0.00;;;;;;;;;;4199488;28;20048;-35
2021/12/19 13:31:22;;;;;;;0.10;0.00;;;;;;;;;;4199866;28;20045;-34